createdAt,value
2018-12-02T00:00:56.738Z,56.60
2018-12-02T00:03:24.855Z,53.73
2018-12-02T00:05:52.954Z,55.38
2018-12-02T00:08:35.793Z,59.27
2018-12-02T00:11:04.441Z,58.92
2018-12-02T00:13:32.426Z,56.90
2018-12-02T00:16:00.441Z,56.05
2018-12-02T00:18:28.449Z,59.05
2018-12-02T00:20:56.560Z,58.92
2018-12-02T00:23:24.527Z,59.50
2018-12-02T00:25:52.860Z,57.95
2018-12-02T00:28:20.856Z,58.25
2018-12-02T00:30:48.939Z,55.83
2018-12-02T00:33:16.977Z,60.80
2018-12-02T00:35:45.006Z,54.95
2018-12-02T00:38:13.005Z,54.50
2018-12-02T00:40:41.014Z,53.23
2018-12-02T00:43:08.997Z,56.88
2018-12-02T00:45:37.472Z,58.30
2018-12-02T00:48:06.390Z,55.65
2018-12-02T00:50:34.445Z,53.90
2018-12-02T00:53:02.497Z,55.23
2018-12-02T00:55:32.556Z,56.88
2018-12-02T00:58:00.508Z,54.88
2018-12-02T01:00:28.609Z,54.50
2018-12-02T01:02:56.615Z,55.67
2018-12-02T01:05:24.699Z,54.83
2018-12-02T01:07:52.694Z,54.67
2018-12-02T01:10:23.230Z,54.35
2018-12-02T01:12:51.724Z,53.92
2018-12-02T01:15:20.110Z,56.45
2018-12-02T01:17:48.182Z,53.15
2018-12-02T01:20:17.469Z,54.20
2018-12-02T01:22:45.544Z,54.75
2018-12-02T01:25:13.849Z,52.35
2018-12-02T01:27:42.028Z,53.23
2018-12-02T01:30:13.453Z,53.52
2018-12-02T01:32:41.409Z,53.15
2018-12-02T01:35:09.748Z,56.05
2018-12-02T01:37:37.819Z,55.73
2018-12-02T01:40:09.394Z,54.53
2018-12-02T01:42:37.395Z,53.45
2018-12-02T01:45:20.557Z,53.95
2018-12-02T01:47:48.520Z,51.85
2018-12-02T01:50:17.148Z,54.08
2018-12-02T01:52:45.550Z,54.70
2018-12-02T01:55:13.485Z,53.50
2018-12-02T01:57:41.461Z,53.60
2018-12-02T02:00:13.929Z,52.50
2018-12-02T02:02:41.888Z,53.48
2018-12-02T02:05:09.914Z,50.52
2018-12-02T02:07:37.901Z,54.50
2018-12-02T02:10:10.693Z,55.30
2018-12-02T02:12:38.680Z,56.90
2018-12-02T02:15:07.498Z,55.50
2018-12-02T02:17:35.443Z,58.30
2018-12-02T02:20:03.563Z,55.00
2018-12-02T02:22:31.532Z,54.10
2018-12-02T02:24:59.463Z,54.55
2018-12-02T02:27:27.422Z,54.08
2018-12-02T02:29:55.391Z,55.83
2018-12-02T02:32:23.310Z,53.95
2018-12-02T02:34:51.275Z,52.78
2018-12-02T02:37:19.291Z,49.30
2018-12-02T02:39:47.221Z,50.78
2018-12-02T02:42:15.166Z,56.28
2018-12-02T02:44:43.102Z,49.40
2018-12-02T02:47:11.063Z,52.13
2018-12-02T02:49:39.004Z,51.75
2018-12-02T02:52:06.959Z,49.10
2018-12-02T02:54:34.905Z,50.55
2018-12-02T02:57:02.869Z,50.38
2018-12-02T02:59:30.894Z,50.50
2018-12-02T03:01:58.881Z,51.15
2018-12-02T03:04:26.839Z,50.28
2018-12-02T03:06:54.790Z,49.27
2018-12-02T03:09:22.765Z,49.23
2018-12-02T03:11:50.743Z,49.42
2018-12-02T03:14:18.754Z,44.98
2018-12-02T03:16:46.707Z,49.98
2018-12-02T03:19:14.681Z,50.17
2018-12-02T03:21:42.654Z,46.85
2018-12-02T03:24:10.585Z,46.95
2018-12-02T03:26:38.537Z,47.15
2018-12-02T03:29:06.515Z,45.70
2018-12-02T03:31:34.492Z,49.18
2018-12-02T03:34:02.423Z,46.92
2018-12-02T03:36:30.386Z,47.40
2018-12-02T03:38:58.366Z,46.37
2018-12-02T03:41:26.384Z,45.28
2018-12-02T03:43:54.316Z,44.45
2018-12-02T03:46:22.273Z,47.08
2018-12-02T03:48:50.242Z,49.42
2018-12-02T03:51:18.215Z,49.10
2018-12-02T03:53:46.185Z,47.17
2018-12-02T03:56:17.001Z,50.45
2018-12-02T03:58:44.986Z,46.18
2018-12-02T04:01:12.980Z,47.38
2018-12-02T04:03:41.238Z,46.35
2018-12-02T04:06:09.191Z,47.85
2018-12-02T04:08:37.164Z,44.50
2018-12-02T04:11:05.291Z,51.05
2018-12-02T04:13:33.238Z,51.10
2018-12-02T04:16:01.227Z,49.13
2018-12-02T04:18:29.253Z,44.00
2018-12-02T04:20:57.216Z,50.95
2018-12-02T04:23:25.182Z,45.08
2018-12-02T04:25:53.413Z,49.33
2018-12-02T04:28:21.377Z,55.15
2018-12-02T04:30:49.310Z,51.18
2018-12-02T04:33:17.245Z,51.37
2018-12-02T04:35:45.192Z,49.15
2018-12-02T04:38:13.271Z,65.37
2018-12-02T04:40:41.243Z,67.15
2018-12-02T04:43:09.217Z,58.40
2018-12-02T04:45:37.185Z,58.78
2018-12-02T04:48:05.139Z,60.23
2018-12-02T04:50:33.099Z,61.98
2018-12-02T04:53:01.132Z,74.87
2018-12-02T04:55:29.084Z,77.40
2018-12-02T04:57:57.029Z,69.00
2018-12-02T05:00:24.960Z,59.42
2018-12-02T05:02:52.923Z,67.32
2018-12-02T05:05:21.500Z,71.53
2018-12-02T05:07:49.478Z,67.62
2018-12-02T05:10:17.909Z,70.65
2018-12-02T05:12:45.984Z,67.92
2018-12-02T05:15:14.379Z,72.12
2018-12-02T05:17:42.368Z,71.05
2018-12-02T05:20:11.776Z,58.35
2018-12-02T05:22:39.751Z,60.73
2018-12-02T05:25:08.490Z,56.42
2018-12-02T05:27:36.456Z,64.17
2018-12-02T05:30:06.512Z,64.30
2018-12-02T05:32:34.494Z,62.80
2018-12-02T05:35:02.472Z,73.28
2018-12-02T05:37:30.459Z,68.05
2018-12-02T05:39:58.377Z,67.65
2018-12-02T05:42:33.163Z,50.90
2018-12-02T05:45:01.159Z,55.65
2018-12-02T05:47:29.091Z,48.23
2018-12-02T05:49:57.125Z,57.55
2018-12-02T05:52:25.087Z,49.05
2018-12-02T05:54:53.032Z,49.63
2018-12-02T05:57:21.013Z,59.58
2018-12-02T05:59:48.943Z,48.50
2018-12-02T06:02:17.700Z,51.25
2018-12-02T06:04:45.003Z,68.97
2018-12-02T06:07:12.955Z,50.40
2018-12-02T06:09:40.955Z,53.60
2018-12-02T06:12:08.882Z,65.97
2018-12-02T06:14:36.926Z,66.80
2018-12-02T06:17:05.317Z,56.75
2018-12-02T06:19:33.245Z,59.85
2018-12-02T06:22:01.206Z,80.45
2018-12-02T06:24:29.143Z,56.50
2018-12-02T06:26:57.098Z,70.47
2018-12-02T06:29:25.075Z,67.42
2018-12-02T06:31:53.153Z,69.27
2018-12-02T06:34:21.118Z,59.33
2018-12-02T06:36:49.073Z,60.08
2018-12-02T06:39:17.051Z,56.50
2018-12-02T06:41:45.020Z,61.00
2018-12-02T06:44:12.998Z,80.85
2018-12-02T06:46:40.969Z,77.62
2018-12-02T06:49:08.933Z,48.55
2018-12-02T06:51:36.870Z,51.10
2018-12-02T06:54:04.918Z,54.60
2018-12-02T06:56:34.024Z,56.65
2018-12-02T06:59:08.562Z,58.83
2018-12-02T07:01:45.545Z,61.30
2018-12-02T07:04:19.832Z,58.02
2018-12-02T07:06:50.194Z,61.55
2018-12-02T07:09:44.930Z,58.87
2018-12-02T07:12:19.279Z,63.15
2018-12-02T07:14:47.832Z,59.15
2018-12-02T07:20:21.191Z,63.83
2018-12-02T07:22:51.844Z,60.48
2018-12-02T07:25:29.590Z,64.95
2018-12-02T07:30:48.747Z,65.37
2018-12-02T07:33:31.577Z,65.92
2018-12-02T07:36:06.235Z,72.40
2018-12-02T07:38:46.736Z,68.75
2018-12-02T07:41:15.706Z,63.08
2018-12-02T07:43:43.669Z,62.45
2018-12-02T07:46:11.673Z,60.48
2018-12-02T07:48:39.738Z,65.15
2018-12-02T07:51:07.755Z,63.95
2018-12-02T07:53:35.818Z,63.48
2018-12-02T07:56:03.870Z,63.50
2018-12-02T07:58:31.883Z,56.65
2018-12-02T08:01:04.415Z,63.42
2018-12-02T08:03:32.489Z,63.28
2018-12-02T08:06:00.474Z,64.75
2018-12-02T08:08:28.707Z,62.00
2018-12-02T08:10:56.695Z,71.42
2018-12-02T08:13:24.653Z,64.37
2018-12-02T08:15:52.642Z,63.00
2018-12-02T08:18:26.481Z,61.48
2018-12-02T08:20:57.510Z,57.25
2018-12-02T08:23:25.492Z,62.88
2018-12-02T08:26:00.608Z,59.67
2018-12-02T08:28:29.649Z,61.15
2018-12-02T08:30:57.571Z,57.05
2018-12-02T08:33:25.546Z,55.95
2018-12-02T08:35:53.547Z,52.50
2018-12-02T08:38:21.523Z,52.67
2018-12-02T08:40:49.522Z,50.33
2018-12-02T08:43:17.486Z,49.65
2018-12-02T08:45:45.451Z,51.48
2018-12-02T08:48:14.163Z,58.80
2018-12-02T08:50:42.199Z,54.10
2018-12-02T08:53:10.160Z,48.28
2018-12-02T08:55:38.143Z,58.10
2018-12-02T08:58:06.143Z,48.35
2018-12-02T09:00:34.130Z,48.75
2018-12-02T09:03:03.014Z,43.60
2018-12-02T09:05:31.030Z,53.83
2018-12-02T09:07:59.831Z,46.83
2018-12-02T09:10:28.338Z,44.60
2018-12-02T09:12:58.718Z,46.13
2018-12-02T09:15:26.693Z,45.12
2018-12-02T09:17:54.670Z,44.85
2018-12-02T09:20:28.315Z,47.90
2018-12-02T09:26:21.488Z,46.77
2018-12-02T09:28:49.601Z,50.23
2018-12-02T09:31:17.608Z,46.68
2018-12-02T09:33:45.659Z,47.38
2018-12-02T09:41:18.659Z,44.73
2018-12-02T09:43:46.862Z,43.42
2018-12-02T09:46:14.897Z,49.70
2018-12-02T09:48:42.886Z,45.38
2018-12-02T09:51:10.967Z,45.92
2018-12-02T09:53:38.931Z,48.42
2018-12-02T09:56:06.891Z,47.15
2018-12-02T09:58:34.876Z,46.98
2018-12-02T10:01:02.937Z,47.98
2018-12-02T10:03:31.027Z,46.13
2018-12-02T10:05:58.994Z,45.88
2018-12-02T10:08:26.963Z,45.38
2018-12-02T10:10:54.994Z,45.90
2018-12-02T10:13:23.233Z,47.17
2018-12-02T10:15:51.338Z,48.78
2018-12-02T10:18:19.375Z,44.25
2018-12-02T10:20:47.395Z,44.67
2018-12-02T10:23:15.385Z,43.80
2018-12-02T10:25:43.475Z,46.83
2018-12-02T10:28:11.425Z,44.03
2018-12-02T10:30:39.725Z,46.80
2018-12-02T10:33:07.953Z,43.30
2018-12-02T10:35:35.951Z,45.45
2018-12-02T10:38:04.134Z,44.70
2018-12-02T10:40:32.772Z,44.08
2018-12-02T10:43:00.209Z,44.33
2018-12-02T10:45:28.191Z,44.45
2018-12-02T10:47:56.715Z,46.20
2018-12-02T10:50:25.244Z,44.60
2018-12-02T10:52:59.004Z,44.75
2018-12-02T10:55:57.309Z,45.73
2018-12-02T10:58:28.858Z,44.98
2018-12-02T11:01:03.854Z,43.33
2018-12-02T11:03:31.937Z,43.02
2018-12-02T11:05:59.910Z,42.93
2018-12-02T11:08:27.927Z,46.45
2018-12-02T11:10:55.916Z,44.50
2018-12-02T11:13:23.930Z,45.30
2018-12-02T11:15:51.922Z,40.10
2018-12-02T11:18:19.905Z,45.30
2018-12-02T11:20:47.876Z,47.27
2018-12-02T11:23:15.915Z,45.15
2018-12-02T11:25:43.925Z,43.68
2018-12-02T11:28:11.890Z,44.70
2018-12-02T11:30:39.998Z,43.87
2018-12-02T11:33:08.007Z,45.12
2018-12-02T11:35:36.044Z,43.45
2018-12-02T11:38:04.260Z,43.50
2018-12-02T11:40:32.274Z,43.70
2018-12-02T11:43:00.312Z,41.90
2018-12-02T11:45:28.319Z,46.73
2018-12-02T11:47:56.302Z,44.42
2018-12-02T11:50:24.727Z,42.95
2018-12-02T11:52:52.734Z,43.40
2018-12-02T11:55:21.152Z,44.65
2018-12-02T11:57:49.356Z,43.90
2018-12-02T12:00:20.621Z,44.60
2018-12-02T12:02:48.654Z,45.30
2018-12-02T12:05:16.786Z,43.83
2018-12-02T12:07:45.150Z,42.98
2018-12-02T12:10:13.630Z,45.15
2018-12-02T12:12:41.741Z,44.27
2018-12-02T12:15:12.268Z,47.65
2018-12-02T12:17:40.365Z,44.80
2018-12-02T12:20:16.433Z,45.92
2018-12-02T12:22:44.466Z,47.33
2018-12-02T12:25:12.442Z,45.73
2018-12-02T12:27:40.491Z,48.65
2018-12-02T12:30:11.866Z,48.63
2018-12-02T12:32:39.891Z,47.17
2018-12-02T12:35:09.602Z,50.23
2018-12-02T12:37:37.643Z,48.17
2018-12-02T12:40:09.724Z,49.25
2018-12-02T12:42:37.708Z,46.50
2018-12-02T12:45:07.144Z,46.23
2018-12-02T12:47:35.109Z,49.23
2018-12-02T12:50:03.272Z,50.28
2018-12-02T12:52:31.262Z,47.58
2018-12-02T12:54:59.269Z,48.15
2018-12-02T12:57:27.271Z,49.85
2018-12-02T12:59:55.260Z,47.15
2018-12-02T13:02:23.410Z,47.75
2018-12-02T13:04:51.389Z,50.33
2018-12-02T13:07:19.364Z,46.90
2018-12-02T13:09:47.373Z,49.33
2018-12-02T13:12:15.378Z,48.00
2018-12-02T13:14:43.359Z,52.70
2018-12-02T13:17:11.425Z,47.13
2018-12-02T13:19:39.409Z,49.63
2018-12-02T13:22:07.407Z,52.30
2018-12-02T13:24:35.405Z,46.77
2018-12-02T13:27:03.414Z,49.18
2018-12-02T13:29:31.355Z,48.52
2018-12-02T13:31:59.327Z,47.45
2018-12-02T13:34:27.377Z,46.23
2018-12-02T13:36:55.365Z,48.65
2018-12-02T13:39:23.418Z,48.50
2018-12-02T13:41:51.439Z,48.10
2018-12-02T13:44:19.454Z,50.38
2018-12-02T13:46:47.427Z,49.30
2018-12-02T13:49:15.454Z,46.68
2018-12-02T13:51:43.463Z,47.35
2018-12-02T13:54:17.002Z,52.20
2018-12-02T13:56:45.019Z,48.75
2018-12-02T13:59:13.003Z,48.63
2018-12-02T14:01:41.049Z,50.30
2018-12-02T14:04:09.092Z,49.20
2018-12-02T14:06:37.128Z,49.75
2018-12-02T14:09:06.243Z,48.38
2018-12-02T14:11:34.299Z,50.08
2018-12-02T14:14:02.819Z,51.37
2018-12-02T14:16:33.902Z,48.60
2018-12-02T14:19:03.841Z,53.00
2018-12-02T14:21:31.829Z,48.40
2018-12-02T14:23:59.904Z,51.77
2018-12-02T14:26:27.890Z,49.38
2018-12-02T14:28:57.646Z,49.00
2018-12-02T14:31:26.273Z,50.73
2018-12-02T14:33:54.279Z,50.35
2018-12-02T14:36:22.283Z,50.20
2018-12-02T14:38:50.505Z,50.90
2018-12-02T14:41:18.603Z,49.83
2018-12-02T14:43:46.624Z,50.92
2018-12-02T14:46:14.597Z,50.20
2018-12-02T14:48:42.585Z,50.55
2018-12-02T14:51:10.578Z,51.77
2018-12-02T14:53:38.555Z,50.40
2018-12-02T14:56:06.690Z,53.48
2018-12-02T14:58:35.656Z,51.70
2018-12-02T15:01:03.637Z,52.67
2018-12-02T15:03:31.686Z,53.28
2018-12-02T15:05:59.647Z,52.00
2018-12-02T15:08:27.622Z,52.95
2018-12-02T15:10:55.606Z,50.15
2018-12-02T15:13:23.610Z,50.92
2018-12-02T15:15:51.616Z,53.25
2018-12-02T15:18:19.690Z,52.08
2018-12-02T15:20:47.658Z,53.68
2018-12-02T15:23:15.636Z,56.45
2018-12-02T15:25:43.643Z,52.45
2018-12-02T15:28:11.620Z,52.58
2018-12-02T15:30:39.655Z,50.85
2018-12-02T15:33:07.693Z,53.00
2018-12-02T15:35:35.873Z,55.78
2018-12-02T15:38:03.840Z,58.13
2018-12-02T15:40:31.856Z,57.60
2018-12-02T15:42:59.889Z,53.28
2018-12-02T15:45:28.025Z,53.38
2018-12-02T15:47:55.985Z,52.48
2018-12-02T15:50:24.210Z,54.58
2018-12-02T15:52:52.289Z,58.25
2018-12-02T15:55:21.193Z,53.02
2018-12-02T15:57:49.196Z,54.13
2018-12-02T16:00:18.643Z,55.03
2018-12-02T16:02:46.631Z,56.28
2018-12-02T16:05:14.585Z,53.23
2018-12-02T16:07:42.549Z,56.58
2018-12-02T16:10:11.139Z,52.88
2018-12-02T16:12:39.255Z,57.67
2018-12-02T16:15:09.858Z,58.50
2018-12-02T16:17:37.984Z,53.90
2018-12-02T16:20:09.560Z,56.92
2018-12-02T16:22:37.533Z,57.58
2018-12-02T16:25:06.120Z,58.52
2018-12-02T16:27:34.135Z,57.60
2018-12-02T16:30:02.392Z,58.78
2018-12-02T16:32:30.477Z,62.10
2018-12-02T16:34:58.526Z,61.48
2018-12-02T16:37:26.500Z,60.73
2018-12-02T16:39:54.545Z,55.78
2018-12-02T16:42:22.615Z,58.25
2018-12-02T16:44:50.577Z,62.23
2018-12-02T16:47:18.546Z,56.58
2018-12-02T16:49:46.614Z,58.85
2018-12-02T16:52:14.576Z,59.53
2018-12-02T16:54:42.590Z,57.40
2018-12-02T16:57:11.237Z,60.98
2018-12-02T16:59:39.298Z,56.92
2018-12-02T17:02:08.001Z,56.18
2018-12-02T17:04:35.998Z,58.10
2018-12-02T17:07:04.068Z,55.92
2018-12-02T17:09:32.035Z,55.80
2018-12-02T17:12:00.018Z,60.20
2018-12-02T17:14:28.037Z,60.25
2018-12-02T17:16:56.030Z,57.55
2018-12-02T17:19:24.018Z,58.63
2018-12-02T17:21:52.001Z,56.00
2018-12-02T17:24:19.965Z,59.55
2018-12-02T17:26:47.913Z,58.23
2018-12-02T17:29:16.623Z,61.28
2018-12-02T17:31:51.770Z,59.63
2018-12-02T17:34:19.796Z,60.45
2018-12-02T17:36:47.775Z,60.12
2018-12-02T17:39:16.987Z,63.60
2018-12-02T17:41:46.463Z,63.73
2018-12-02T17:44:14.481Z,60.55
2018-12-02T17:46:42.534Z,60.80
2018-12-02T17:49:10.658Z,59.53
2018-12-02T17:51:38.664Z,61.63
2018-12-02T17:56:41.294Z,60.55
2018-12-02T17:59:09.270Z,61.98
2018-12-02T18:01:37.252Z,64.17
2018-12-02T18:04:05.913Z,59.10
2018-12-02T18:06:33.876Z,61.37
2018-12-02T18:09:01.900Z,63.42
2018-12-02T18:11:29.935Z,63.60
2018-12-02T18:13:58.023Z,66.80
2018-12-02T18:16:25.972Z,64.40
2018-12-02T18:18:53.984Z,63.02
2018-12-02T18:21:21.956Z,64.65
2018-12-02T18:23:49.919Z,65.20
2018-12-02T18:26:17.993Z,65.60
2018-12-02T18:28:46.027Z,67.80
2018-12-02T18:31:13.973Z,73.05
2018-12-02T18:33:42.008Z,73.12
2018-12-02T18:36:11.875Z,71.42
2018-12-02T18:38:40.669Z,75.00
2018-12-02T18:41:11.815Z,71.62
2018-12-02T18:43:39.833Z,70.05
2018-12-02T18:46:07.813Z,70.45
2018-12-02T18:48:35.816Z,69.42
2018-12-02T18:51:03.797Z,72.15
2018-12-02T18:53:31.795Z,68.55
2018-12-02T18:55:59.879Z,63.42
2018-12-02T18:58:27.926Z,62.23
2018-12-02T19:00:55.943Z,61.35
2018-12-02T19:03:24.162Z,60.88
2018-12-02T19:05:52.331Z,64.58
2018-12-02T19:08:20.373Z,65.45
2018-12-02T19:10:49.442Z,62.75
2018-12-02T19:13:17.439Z,62.00
2018-12-02T19:15:45.615Z,63.55
2018-12-02T19:18:13.613Z,59.63
2018-12-02T19:20:41.615Z,63.28
2018-12-02T19:23:10.947Z,62.80
2018-12-02T19:25:38.999Z,66.75
2018-12-02T19:28:07.003Z,66.97
2018-12-02T19:30:35.064Z,69.92
2018-12-02T19:33:03.177Z,62.03
2018-12-02T19:35:32.651Z,71.12
2018-12-02T19:38:03.010Z,66.67
2018-12-02T19:40:32.150Z,69.17
2018-12-02T19:43:00.093Z,71.20
2018-12-02T19:45:28.111Z,69.37
2018-12-02T19:47:56.227Z,70.97
2018-12-02T19:50:24.229Z,70.70
2018-12-02T19:52:52.517Z,69.27
2018-12-02T19:55:20.486Z,72.85
2018-12-02T19:57:48.800Z,71.90
2018-12-02T20:00:22.885Z,74.82
2018-12-02T20:02:50.910Z,71.37
2018-12-02T20:05:18.956Z,73.05
2018-12-02T20:07:48.782Z,67.78
2018-12-02T20:10:17.496Z,72.67
2018-12-02T20:12:45.639Z,70.15
2018-12-02T20:15:14.308Z,70.10
2018-12-02T20:17:42.730Z,71.22
2018-12-02T20:20:17.029Z,75.17
2018-12-02T20:22:45.001Z,65.45
2018-12-02T20:25:13.011Z,72.85
2018-12-02T20:27:41.080Z,68.87
2018-12-02T20:30:11.745Z,67.35
2018-12-02T20:32:44.593Z,66.90
2018-12-02T20:35:12.640Z,69.92
2018-12-02T20:37:40.726Z,66.50
2018-12-02T20:40:10.299Z,69.70
2018-12-02T20:42:38.265Z,69.03
2018-12-02T20:45:08.153Z,70.92
2018-12-02T20:47:37.796Z,69.85
2018-12-02T20:50:06.987Z,68.17
2018-12-02T20:52:34.982Z,68.90
2018-12-02T20:55:03.022Z,65.30
2018-12-02T20:57:31.534Z,72.05
2018-12-02T20:59:59.644Z,74.70
2018-12-02T21:02:27.686Z,71.25
2018-12-02T21:04:55.723Z,75.67
2018-12-02T21:07:23.897Z,72.82
2018-12-02T21:09:51.877Z,70.22
2018-12-02T21:12:19.977Z,71.77
2018-12-02T21:14:48.035Z,70.78
2018-12-02T21:17:15.982Z,71.85
2018-12-02T21:19:43.985Z,68.60
2018-12-02T21:22:12.006Z,73.60
2018-12-02T21:24:39.915Z,68.42
2018-12-02T21:27:07.948Z,66.30
2018-12-02T21:29:36.221Z,69.25
2018-12-02T21:32:04.245Z,66.55
2018-12-02T21:34:32.585Z,66.60
2018-12-02T21:37:00.593Z,65.83
2018-12-02T21:39:28.547Z,67.55
2018-12-02T21:41:56.581Z,66.53
2018-12-02T21:44:24.658Z,67.20
2018-12-02T21:46:52.719Z,63.52
2018-12-02T21:49:20.729Z,64.47
2018-12-02T21:51:48.786Z,67.22
2018-12-02T21:54:16.761Z,67.78
2018-12-02T21:56:44.801Z,67.10
2018-12-02T21:59:12.770Z,66.25
2018-12-02T22:01:40.769Z,69.47
2018-12-02T22:04:08.790Z,66.92
2018-12-02T22:06:36.783Z,66.57
2018-12-02T22:09:06.397Z,65.80
2018-12-02T22:11:34.420Z,72.25
2018-12-02T22:14:02.476Z,72.80
2018-12-02T22:16:30.486Z,71.40
2018-12-02T22:18:58.450Z,71.97
2018-12-02T22:21:26.758Z,67.92
2018-12-02T22:23:54.948Z,67.60
2018-12-02T22:26:22.991Z,70.87
2018-12-02T22:28:51.143Z,68.45
2018-12-02T22:31:19.243Z,69.65
2018-12-02T22:33:47.313Z,73.85
2018-12-02T22:36:15.339Z,68.60
2018-12-02T22:38:43.317Z,67.50
2018-12-02T22:41:11.360Z,65.75
2018-12-02T22:43:39.487Z,66.40
2018-12-02T22:46:07.451Z,68.60
2018-12-02T22:48:35.389Z,66.87
2018-12-02T22:51:03.446Z,64.05
2018-12-02T22:53:31.487Z,66.87
2018-12-02T22:55:59.447Z,64.00
2018-12-02T22:58:27.472Z,68.33
2018-12-02T23:01:00.855Z,62.83
2018-12-02T23:03:28.860Z,63.95
2018-12-02T23:05:56.870Z,71.07
2018-12-02T23:08:24.859Z,68.47
2018-12-02T23:10:52.899Z,66.45
2018-12-02T23:13:20.898Z,67.90
2018-12-02T23:15:48.917Z,69.65
2018-12-02T23:18:16.883Z,69.45
2018-12-02T23:20:45.034Z,63.92
2018-12-02T23:23:13.028Z,67.70
2018-12-02T23:25:40.970Z,68.45
2018-12-02T23:28:09.002Z,65.67
2018-12-02T23:30:37.055Z,69.30
2018-12-02T23:33:05.773Z,70.28
2018-12-02T23:35:33.750Z,67.08
2018-12-02T23:38:01.701Z,68.57
2018-12-02T23:40:29.725Z,63.60
2018-12-02T23:42:57.798Z,71.42
2018-12-02T23:45:25.751Z,67.37
2018-12-02T23:47:53.711Z,67.55
2018-12-02T23:50:22.637Z,62.90
2018-12-02T23:52:50.669Z,66.87
2018-12-02T23:55:19.525Z,67.03
2018-12-02T23:57:47.730Z,62.80
